Time;durP1;ratioP1;P1;durP2;ratioP2;P2;SDS_P1;SDS_P2;PMS_P1;PMS_P2;Temp;Humidity;BMP_temperature;BMP_pressure;BME280_temperature;BME280_humidity;BME280_pressure;Samples;Min_cycle;Max_cycle;Signal;HPM_P1;HPM_P2
2022/12/30 00:00:24;;;;;;;4.82;1.20;;;;;;;;;;5063412;28;20119;-75
2022/12/30 00:02:49;;;;;;;3.72;1.10;;;;;;;;;;5059791;28;20396;-75
2022/12/30 00:05:15;;;;;;;4.20;1.13;;;;;;;;;;5066741;28;20405;-75
2022/12/30 00:07:40;;;;;;;5.25;1.40;;;;;;;;;;5066437;28;20033;-75
2022/12/30 00:10:06;;;;;;;4.55;1.40;;;;;;;;;;5061304;28;20480;-76
2022/12/30 00:35:01;;;;;;;6.28;1.45;;;;;;;;;;5053258;28;20032;-75
2022/12/30 00:37:27;;;;;;;5.97;1.10;;;;;;;;;;5062072;28;20074;-76
2022/12/30 00:39:52;;;;;;;5.00;1.25;;;;;;;;;;5061473;28;20103;-75
2022/12/30 00:45:01;;;;;;;6.72;1.63;;;;;;;;;;5060389;28;20093;-75
2022/12/30 00:47:27;;;;;;;4.28;1.10;;;;;;;;;;5068249;28;20028;-75
2022/12/30 00:58:04;;;;;;;3.92;1.52;;;;;;;;;;5054617;28;20051;-75
2022/12/30 01:00:30;;;;;;;6.55;1.40;;;;;;;;;;5054460;28;21180;-75
2022/12/30 01:02:55;;;;;;;4.45;1.10;;;;;;;;;;5048731;28;20032;-75
2022/12/30 01:05:20;;;;;;;6.30;1.50;;;;;;;;;;5053940;28;20455;-75
2022/12/30 01:07:46;;;;;;;6.43;1.25;;;;;;;;;;5051693;28;20029;-74
2022/12/30 01:10:11;;;;;;;4.25;1.00;;;;;;;;;;5052859;28;20396;-76
2022/12/30 01:12:37;;;;;;;4.03;1.10;;;;;;;;;;5054573;28;20028;-75
2022/12/30 01:15:03;;;;;;;3.60;1.23;;;;;;;;;;5053243;28;20036;-75
2022/12/30 01:17:31;;;;;;;4.38;1.55;;;;;;;;;;5053393;28;20033;-75
2022/12/30 01:19:56;;;;;;;5.75;1.27;;;;;;;;;;5055614;28;20085;-75
2022/12/30 01:22:23;;;;;;;3.85;0.90;;;;;;;;;;5058394;28;20028;-75
2022/12/30 01:24:48;;;;;;;5.03;1.05;;;;;;;;;;5055495;28;20554;-75
2022/12/30 01:27:14;;;;;;;6.03;1.27;;;;;;;;;;5062939;28;20021;-74
2022/12/30 01:29:41;;;;;;;5.07;1.17;;;;;;;;;;5057890;28;20486;-75
2022/12/30 01:32:09;;;;;;;5.28;1.08;;;;;;;;;;5055596;28;20028;-74
2022/12/30 01:34:35;;;;;;;5.72;1.45;;;;;;;;;;5056400;28;20035;-75
2022/12/30 01:37:01;;;;;;;5.22;1.35;;;;;;;;;;5051766;28;20033;-74
2022/12/30 01:39:26;;;;;;;5.88;1.77;;;;;;;;;;5062163;28;20032;-75
2022/12/30 01:41:55;;;;;;;4.60;1.23;;;;;;;;;;5053202;28;20028;-75
2022/12/30 01:45:00;;;;;;;2.28;1.10;;;;;;;;;;5053960;28;20034;-75
2022/12/30 01:47:34;;;;;;;6.22;1.33;;;;;;;;;;5070442;28;20032;-74
2022/12/30 01:50:15;;;;;;;5.07;1.42;;;;;;;;;;5069694;28;20025;-74
2022/12/30 01:52:49;;;;;;;4.63;1.20;;;;;;;;;;5061657;28;20078;-75
2022/12/30 01:55:23;;;;;;;7.93;1.50;;;;;;;;;;5065607;28;20046;-75
2022/12/30 01:57:51;;;;;;;4.00;0.93;;;;;;;;;;5050655;28;20028;-75
2022/12/30 02:00:16;;;;;;;8.90;1.67;;;;;;;;;;5047763;28;20361;-75
2022/12/30 02:02:42;;;;;;;5.75;1.63;;;;;;;;;;5056142;28;20036;-75
2022/12/30 02:05:10;;;;;;;8.48;1.80;;;;;;;;;;5048875;28;21965;-74
2022/12/30 02:07:41;;;;;;;3.38;1.15;;;;;;;;;;5044531;28;20031;-76
2022/12/30 02:10:08;;;;;;;7.00;1.30;;;;;;;;;;5048453;28;20028;-76
2022/12/30 02:12:33;;;;;;;3.60;1.13;;;;;;;;;;5050687;28;20475;-75
2022/12/30 02:14:59;;;;;;;9.07;1.55;;;;;;;;;;5051419;28;20029;-75
2022/12/30 02:17:59;;;;;;;7.30;1.73;;;;;;;;;;5052449;28;20059;-75
2022/12/30 02:20:58;;;;;;;8.85;1.42;;;;;;;;;;5049207;28;20300;-75
2022/12/30 02:23:55;;;;;;;4.82;1.60;;;;;;;;;;5050344;28;20039;-74
2022/12/30 02:26:32;;;;;;;6.35;1.50;;;;;;;;;;5052868;28;20033;-75
2022/12/30 02:29:25;;;;;;;5.88;1.20;;;;;;;;;;5051093;28;20382;-75
2022/12/30 02:32:04;;;;;;;8.98;1.88;;;;;;;;;;5054722;28;20027;-75
2022/12/30 02:35:04;;;;;;;5.30;1.88;;;;;;;;;;5052366;28;20581;-75
2022/12/30 02:38:03;;;;;;;4.75;1.42;;;;;;;;;;5046774;28;20028;-75
2022/12/30 02:46:12;;;;;;;6.18;1.40;;;;;;;;;;5046246;28;20043;-75
2022/12/30 02:48:42;;;;;;;6.88;1.55;;;;;;;;;;5047110;28;20033;-76
2022/12/30 02:53:53;;;;;;;6.38;1.30;;;;;;;;;;5054829;28;20044;-76
2022/12/30 02:56:19;;;;;;;5.65;1.55;;;;;;;;;;5048768;28;20294;-75
2022/12/30 02:58:48;;;;;;;8.35;1.25;;;;;;;;;;5050687;28;20046;-74
2022/12/30 03:04:44;;;;;;;6.90;1.38;;;;;;;;;;5054890;28;20039;-76
2022/12/30 03:07:27;;;;;;;5.65;1.42;;;;;;;;;;5049392;28;20055;-75
2022/12/30 03:13:13;;;;;;;6.82;1.23;;;;;;;;;;5049289;28;20047;-75
2022/12/30 03:15:48;;;;;;;2.53;1.08;;;;;;;;;;5053361;28;21694;-75
2022/12/30 03:18:14;;;;;;;6.30;1.38;;;;;;;;;;5047622;28;20025;-75
2022/12/30 03:20:41;;;;;;;6.47;1.13;;;;;;;;;;5048748;28;20024;-75
2022/12/30 03:28:42;;;;;;;7.28;1.30;;;;;;;;;;5049362;28;20055;-75
2022/12/30 03:31:11;;;;;;;5.25;1.40;;;;;;;;;;5052545;28;20468;-75
2022/12/30 03:33:38;;;;;;;5.70;1.25;;;;;;;;;;5048276;28;20028;-75
2022/12/30 03:36:16;;;;;;;4.88;1.73;;;;;;;;;;5048916;28;20029;-75
2022/12/30 03:38:49;;;;;;;6.15;1.50;;;;;;;;;;5048403;28;20031;-75
2022/12/30 03:41:18;;;;;;;6.80;1.38;;;;;;;;;;5044381;28;20403;-75
2022/12/30 03:43:44;;;;;;;3.88;1.20;;;;;;;;;;5046304;28;20028;-74
2022/12/30 03:46:11;;;;;;;6.75;1.17;;;;;;;;;;5048699;28;20031;-76
2022/12/30 03:48:36;;;;;;;5.05;1.05;;;;;;;;;;5047108;28;20040;-75
2022/12/30 03:51:01;;;;;;;5.15;1.77;;;;;;;;;;5046246;28;20032;-75
2022/12/30 03:53:27;;;;;;;7.15;1.40;;;;;;;;;;5049347;28;20499;-75
2022/12/30 03:55:52;;;;;;;8.48;1.40;;;;;;;;;;5047643;28;21303;-75
2022/12/30 03:58:18;;;;;;;11.48;1.65;;;;;;;;;;5050254;28;20028;-75
2022/12/30 04:00:43;;;;;;;4.97;1.25;;;;;;;;;;5046677;28;20493;-75
2022/12/30 04:03:08;;;;;;;6.75;1.33;;;;;;;;;;5048201;28;20085;-75
2022/12/30 04:05:34;;;;;;;6.18;1.35;;;;;;;;;;5057053;28;20063;-74
2022/12/30 04:08:00;;;;;;;6.70;1.48;;;;;;;;;;5045495;28;20032;-74
2022/12/30 04:10:25;;;;;;;5.30;1.30;;;;;;;;;;5055852;28;20039;-75
2022/12/30 04:12:50;;;;;;;4.95;1.60;;;;;;;;;;5049236;28;20020;-76
2022/12/30 04:15:16;;;;;;;6.03;1.00;;;;;;;;;;5048268;28;20548;-75
2022/12/30 04:17:41;;;;;;;8.07;1.20;;;;;;;;;;5047275;28;20036;-75
2022/12/30 04:20:07;;;;;;;6.07;1.20;;;;;;;;;;5048676;28;20021;-75
2022/12/30 04:22:32;;;;;;;4.03;1.17;;;;;;;;;;5053438;28;20093;-75
2022/12/30 04:24:57;;;;;;;4.22;1.30;;;;;;;;;;5047018;28;20067;-75
2022/12/30 04:27:23;;;;;;;6.13;1.52;;;;;;;;;;5048089;28;20031;-75
2022/12/30 04:29:48;;;;;;;4.65;1.20;;;;;;;;;;5055338;28;20178;-74
2022/12/30 04:32:13;;;;;;;8.80;1.67;;;;;;;;;;5049005;28;20033;-75
2022/12/30 04:34:39;;;;;;;6.10;1.10;;;;;;;;;;5046991;28;20028;-75
2022/12/30 04:37:04;;;;;;;9.32;1.42;;;;;;;;;;5043974;28;20033;-75
2022/12/30 04:39:29;;;;;;;4.82;1.33;;;;;;;;;;5046983;28;20111;-75
2022/12/30 04:41:55;;;;;;;7.95;1.55;;;;;;;;;;5049025;28;20270;-74
2022/12/30 04:44:20;;;;;;;5.68;1.30;;;;;;;;;;5046001;28;20439;-75
2022/12/30 04:46:45;;;;;;;3.85;1.40;;;;;;;;;;5044250;28;20680;-75
2022/12/30 04:49:11;;;;;;;5.68;1.83;;;;;;;;;;5049284;28;20040;-75
2022/12/30 04:51:36;;;;;;;7.97;1.27;;;;;;;;;;5048495;28;20028;-75
2022/12/30 04:54:02;;;;;;;9.13;1.67;;;;;;;;;;5043568;28;21791;-75
2022/12/30 04:56:27;;;;;;;7.80;1.40;;;;;;;;;;5044877;28;20071;-75
2022/12/30 04:58:53;;;;;;;7.63;1.80;;;;;;;;;;5040943;28;20037;-74
2022/12/30 05:01:19;;;;;;;6.70;1.55;;;;;;;;;;5049308;28;21480;-76
2022/12/30 05:03:44;;;;;;;5.90;1.52;;;;;;;;;;5046732;28;20085;-75
2022/12/30 05:06:10;;;;;;;6.90;1.83;;;;;;;;;;5047845;28;20307;-75
2022/12/30 05:08:35;;;;;;;5.63;1.50;;;;;;;;;;5045728;28;20043;-75
2022/12/30 05:11:00;;;;;;;6.88;1.73;;;;;;;;;;5046786;28;20020;-75
2022/12/30 05:13:26;;;;;;;9.02;1.63;;;;;;;;;;5045256;28;20187;-75
2022/12/30 05:15:51;;;;;;;6.15;1.63;;;;;;;;;;5048742;28;20033;-75
2022/12/30 05:18:16;;;;;;;7.85;2.00;;;;;;;;;;5045146;28;20033;-74
2022/12/30 05:20:42;;;;;;;5.35;1.55;;;;;;;;;;5050748;28;20029;-75
2022/12/30 05:26:13;;;;;;;7.85;1.85;;;;;;;;;;5043126;28;20680;-75
2022/12/30 05:28:37;;;;;;;6.75;1.50;;;;;;;;;;5042807;28;20190;-75
2022/12/30 05:31:02;;;;;;;4.63;1.30;;;;;;;;;;5046105;28;20017;-75
2022/12/30 05:33:27;;;;;;;5.70;1.27;;;;;;;;;;5043716;28;20405;-75
2022/12/30 05:35:53;;;;;;;7.40;1.42;;;;;;;;;;5046398;28;20040;-74
2022/12/30 05:38:18;;;;;;;9.50;1.70;;;;;;;;;;5050011;28;20036;-75
2022/12/30 05:40:43;;;;;;;7.85;1.90;;;;;;;;;;5050100;28;20042;-74
2022/12/30 05:43:09;;;;;;;5.18;1.25;;;;;;;;;;5053206;28;20450;-75
2022/12/30 05:45:34;;;;;;;5.22;1.35;;;;;;;;;;5049109;28;20451;-75
2022/12/30 05:47:59;;;;;;;7.32;1.40;;;;;;;;;;5053319;28;20029;-75
2022/12/30 05:50:25;;;;;;;4.55;1.60;;;;;;;;;;5057657;28;20028;-75
2022/12/30 05:52:50;;;;;;;8.57;1.58;;;;;;;;;;5057007;28;21868;-75
2022/12/30 05:55:15;;;;;;;7.30;1.52;;;;;;;;;;5060486;28;20032;-74
2022/12/30 05:57:41;;;;;;;7.63;1.60;;;;;;;;;;5061500;28;20029;-74
2022/12/30 06:00:07;;;;;;;6.43;1.58;;;;;;;;;;5062171;28;20038;-75
2022/12/30 06:02:33;;;;;;;6.38;1.45;;;;;;;;;;5063441;28;20067;-75
2022/12/30 06:04:58;;;;;;;5.65;1.60;;;;;;;;;;5063290;28;20024;-74
2022/12/30 06:07:24;;;;;;;8.57;1.80;;;;;;;;;;5060211;28;20511;-75
2022/12/30 06:09:49;;;;;;;7.35;1.40;;;;;;;;;;5061912;28;20036;-75
2022/12/30 06:12:14;;;;;;;6.45;1.70;;;;;;;;;;5062637;28;20020;-75
2022/12/30 06:14:40;;;;;;;7.35;1.75;;;;;;;;;;5063987;28;20026;-75
2022/12/30 06:17:05;;;;;;;8.27;1.50;;;;;;;;;;5066094;28;20105;-75
2022/12/30 06:19:31;;;;;;;7.30;1.38;;;;;;;;;;5061300;28;20405;-75
2022/12/30 06:21:56;;;;;;;6.65;1.77;;;;;;;;;;5068303;28;20020;-74
2022/12/30 06:24:21;;;;;;;5.05;1.40;;;;;;;;;;5065640;28;20492;-75
2022/12/30 06:26:47;;;;;;;3.10;1.30;;;;;;;;;;5063191;28;20063;-77
2022/12/30 06:29:12;;;;;;;4.22;1.40;;;;;;;;;;5066284;28;20569;-75
2022/12/30 06:31:39;;;;;;;8.45;2.58;;;;;;;;;;5069425;28;20191;-75
2022/12/30 06:34:04;;;;;;;5.95;1.40;;;;;;;;;;5069423;28;20116;-75
2022/12/30 06:36:29;;;;;;;4.40;1.33;;;;;;;;;;5063170;28;20077;-75
2022/12/30 06:38:55;;;;;;;5.70;1.40;;;;;;;;;;5067781;28;20050;-76
2022/12/30 06:41:20;;;;;;;4.70;1.45;;;;;;;;;;5065433;28;20107;-75
2022/12/30 06:43:45;;;;;;;4.13;1.33;;;;;;;;;;5066986;28;20028;-75
2022/12/30 06:46:11;;;;;;;5.85;2.45;;;;;;;;;;5064635;28;20037;-75
2022/12/30 06:48:36;;;;;;;5.68;1.40;;;;;;;;;;5065598;28;20033;-75
2022/12/30 06:51:02;;;;;;;7.13;2.08;;;;;;;;;;5068471;28;20464;-75
2022/12/30 06:53:28;;;;;;;6.68;1.45;;;;;;;;;;5063216;28;20032;-75
2022/12/30 06:55:54;;;;;;;7.95;1.33;;;;;;;;;;5060010;28;20499;-75
2022/12/30 06:58:20;;;;;;;5.22;1.42;;;;;;;;;;5067071;28;20070;-75
2022/12/30 07:00:45;;;;;;;4.22;1.63;;;;;;;;;;5068723;28;20031;-75
2022/12/30 07:03:11;;;;;;;7.65;1.70;;;;;;;;;;5061944;28;20020;-75
2022/12/30 07:05:36;;;;;;;5.43;1.65;;;;;;;;;;5065889;28;20029;-75
2022/12/30 07:08:02;;;;;;;6.57;1.77;;;;;;;;;;5064466;28;20025;-75
2022/12/30 07:10:27;;;;;;;7.93;1.70;;;;;;;;;;5064972;28;20028;-75
2022/12/30 07:12:53;;;;;;;8.02;1.48;;;;;;;;;;5063133;28;20040;-75
2022/12/30 07:15:18;;;;;;;5.13;1.50;;;;;;;;;;5058828;28;20075;-75
2022/12/30 07:17:43;;;;;;;7.15;1.77;;;;;;;;;;5065907;28;20025;-75
2022/12/30 07:20:11;;;;;;;7.13;1.88;;;;;;;;;;5065172;28;20029;-75
2022/12/30 07:22:37;;;;;;;9.05;1.75;;;;;;;;;;5067615;28;20503;-75
2022/12/30 07:25:02;;;;;;;4.88;1.45;;;;;;;;;;5062472;28;20020;-76
2022/12/30 07:27:27;;;;;;;4.22;1.23;;;;;;;;;;5061940;28;20055;-75
2022/12/30 07:29:53;;;;;;;6.78;1.55;;;;;;;;;;5062906;28;20032;-75
2022/12/30 07:32:18;;;;;;;8.23;1.42;;;;;;;;;;5067789;28;20354;-75
2022/12/30 07:34:43;;;;;;;6.28;1.52;;;;;;;;;;5059509;28;20020;-76
2022/12/30 07:37:09;;;;;;;5.32;1.38;;;;;;;;;;5064321;28;20039;-75
2022/12/30 07:39:34;;;;;;;7.30;1.55;;;;;;;;;;5065940;28;20024;-75
2022/12/30 07:42:00;;;;;;;5.50;1.50;;;;;;;;;;5065889;28;20040;-75
2022/12/30 07:44:25;;;;;;;5.90;1.98;;;;;;;;;;5065811;28;20028;-75
2022/12/30 07:46:51;;;;;;;4.95;1.50;;;;;;;;;;5063985;28;20077;-75
2022/12/30 07:49:16;;;;;;;8.15;1.75;;;;;;;;;;5062726;28;20357;-76
2022/12/30 07:51:41;;;;;;;6.68;1.40;;;;;;;;;;5061909;28;20381;-75
2022/12/30 07:54:07;;;;;;;4.55;1.42;;;;;;;;;;5067450;28;20032;-75
2022/12/30 07:56:32;;;;;;;6.38;1.83;;;;;;;;;;5060641;28;20929;-77
2022/12/30 07:58:58;;;;;;;5.15;1.50;;;;;;;;;;5067289;28;20024;-75
2022/12/30 08:01:24;;;;;;;4.43;1.67;;;;;;;;;;5069964;28;20027;-75
2022/12/30 08:03:50;;;;;;;4.68;1.60;;;;;;;;;;5065871;28;20028;-76
2022/12/30 08:06:17;;;;;;;6.30;1.92;;;;;;;;;;5061303;28;20252;-75
2022/12/30 08:08:44;;;;;;;9.50;1.85;;;;;;;;;;5060046;28;20097;-75
2022/12/30 08:11:10;;;;;;;5.03;1.65;;;;;;;;;;5061602;28;20032;-75
2022/12/30 08:13:38;;;;;;;4.65;1.40;;;;;;;;;;5060146;28;20028;-76
2022/12/30 08:16:15;;;;;;;4.13;1.77;;;;;;;;;;5063164;28;20590;-75
2022/12/30 08:18:40;;;;;;;5.18;1.70;;;;;;;;;;5063400;28;20028;-75
2022/12/30 08:21:09;;;;;;;8.40;1.75;;;;;;;;;;5062226;28;20037;-75
2022/12/30 08:23:35;;;;;;;4.65;1.20;;;;;;;;;;5067288;28;20522;-75
2022/12/30 08:26:08;;;;;;;4.88;1.55;;;;;;;;;;5062709;28;20032;-76
2022/12/30 08:28:34;;;;;;;5.95;1.70;;;;;;;;;;5061731;28;20101;-75
2022/12/30 08:31:08;;;;;;;6.28;1.58;;;;;;;;;;5065513;28;20053;-75
2022/12/30 08:33:33;;;;;;;6.18;1.52;;;;;;;;;;5065047;28;20020;-75
2022/12/30 08:36:03;;;;;;;5.35;1.40;;;;;;;;;;5062192;28;20024;-76
2022/12/30 08:38:29;;;;;;;5.32;1.58;;;;;;;;;;5064608;28;20048;-75
2022/12/30 08:41:10;;;;;;;5.53;1.63;;;;;;;;;;5061968;28;20064;-76
2022/12/30 08:43:36;;;;;;;4.22;1.75;;;;;;;;;;5058743;28;20024;-75
2022/12/30 08:46:01;;;;;;;6.93;1.98;;;;;;;;;;5055633;28;20055;-75
2022/12/30 08:48:27;;;;;;;3.22;1.30;;;;;;;;;;5059123;28;20396;-76
2022/12/30 08:50:54;;;;;;;3.97;1.20;;;;;;;;;;5067046;28;20017;-75
2022/12/30 08:53:19;;;;;;;6.90;1.63;;;;;;;;;;5063212;28;20029;-75
2022/12/30 08:55:44;;;;;;;4.72;1.38;;;;;;;;;;5063199;28;20027;-76
2022/12/30 08:58:10;;;;;;;4.28;1.55;;;;;;;;;;5059026;28;20116;-76
2022/12/30 09:00:37;;;;;;;4.30;1.40;;;;;;;;;;5065594;28;20031;-75
2022/12/30 09:03:03;;;;;;;6.60;1.55;;;;;;;;;;5058463;28;20067;-75
2022/12/30 09:05:28;;;;;;;3.88;1.33;;;;;;;;;;5063168;28;20032;-75
2022/12/30 09:07:54;;;;;;;8.77;1.80;;;;;;;;;;5063104;28;20031;-75
2022/12/30 09:10:20;;;;;;;4.78;1.60;;;;;;;;;;5062857;28;20111;-75
2022/12/30 09:12:45;;;;;;;5.20;1.67;;;;;;;;;;5066000;28;20060;-76
2022/12/30 09:15:11;;;;;;;5.07;1.45;;;;;;;;;;5070104;28;20024;-75
2022/12/30 09:17:36;;;;;;;4.35;1.30;;;;;;;;;;5058430;28;20029;-75
2022/12/30 09:20:02;;;;;;;5.70;1.38;;;;;;;;;;5062658;28;20432;-75
2022/12/30 09:22:27;;;;;;;3.60;1.30;;;;;;;;;;5070515;28;20112;-75
2022/12/30 09:24:53;;;;;;;3.80;1.52;;;;;;;;;;5068818;28;20024;-75
2022/12/30 09:27:18;;;;;;;5.18;1.45;;;;;;;;;;5065505;28;20029;-75
2022/12/30 09:29:43;;;;;;;2.85;1.13;;;;;;;;;;5062868;28;20040;-75
2022/12/30 09:32:09;;;;;;;5.47;1.30;;;;;;;;;;5060824;28;20044;-75
2022/12/30 09:34:34;;;;;;;6.00;1.33;;;;;;;;;;5067432;28;20039;-75
2022/12/30 09:36:59;;;;;;;2.83;1.20;;;;;;;;;;5068220;28;20121;-76
2022/12/30 09:39:30;;;;;;;4.75;1.13;;;;;;;;;;5065648;28;20032;-75
2022/12/30 09:44:45;;;;;;;4.00;1.13;;;;;;;;;;5072236;28;20040;-75
2022/12/30 09:47:22;;;;;;;3.67;1.38;;;;;;;;;;5058250;28;20024;-75
2022/12/30 09:49:55;;;;;;;7.57;0.90;;;;;;;;;;5063638;28;20501;-76
2022/12/30 09:52:31;;;;;;;3.15;1.00;;;;;;;;;;5072981;28;20024;-75
2022/12/30 09:55:10;;;;;;;2.78;0.82;;;;;;;;;;5070299;28;20035;-75
2022/12/30 09:57:37;;;;;;;4.82;1.25;;;;;;;;;;5074691;28;20523;-75
2022/12/30 10:00:17;;;;;;;2.67;1.25;;;;;;;;;;5065791;28;20028;-75
2022/12/30 10:03:06;;;;;;;4.35;1.38;;;;;;;;;;5063028;28;20111;-75
2022/12/30 10:06:10;;;;;;;2.78;1.00;;;;;;;;;;5062603;28;20056;-75
2022/12/30 10:09:05;;;;;;;3.38;1.00;;;;;;;;;;5065166;28;20115;-75
2022/12/30 10:12:01;;;;;;;4.70;0.90;;;;;;;;;;5069971;28;20028;-75
2022/12/30 10:14:38;;;;;;;2.08;0.90;;;;;;;;;;5069055;28;20115;-75
2022/12/30 10:17:38;;;;;;;3.28;0.88;;;;;;;;;;5065925;28;20056;-75
2022/12/30 10:20:13;;;;;;;3.95;1.00;;;;;;;;;;5069560;28;20028;-75
2022/12/30 10:23:07;;;;;;;3.67;0.90;;;;;;;;;;5070817;28;20743;-75
2022/12/30 10:25:33;;;;;;;3.20;0.90;;;;;;;;;;5070232;28;20040;-75
2022/12/30 10:27:59;;;;;;;4.72;0.95;;;;;;;;;;5064672;28;20466;-75
2022/12/30 10:30:38;;;;;;;3.75;1.00;;;;;;;;;;5068614;28;20116;-75
2022/12/30 10:33:13;;;;;;;2.80;0.90;;;;;;;;;;5069017;28;20028;-75
2022/12/30 10:35:40;;;;;;;2.85;1.02;;;;;;;;;;5070811;28;20428;-75
2022/12/30 10:38:22;;;;;;;5.47;0.93;;;;;;;;;;5063184;28;20032;-75
2022/12/30 10:41:08;;;;;;;3.95;1.17;;;;;;;;;;5068121;28;20041;-75
2022/12/30 10:43:53;;;;;;;8.00;1.45;;;;;;;;;;5066859;28;20047;-75
2022/12/30 10:46:42;;;;;;;5.45;1.10;;;;;;;;;;5057363;28;20385;-75
2022/12/30 10:49:24;;;;;;;3.70;1.05;;;;;;;;;;5061792;28;20028;-76
2022/12/30 10:51:50;;;;;;;4.70;0.90;;;;;;;;;;5071443;28;20472;-75
2022/12/30 10:54:16;;;;;;;4.10;1.13;;;;;;;;;;5066564;28;20078;-75
2022/12/30 10:56:42;;;;;;;2.70;0.88;;;;;;;;;;5064888;28;20381;-75
2022/12/30 10:59:17;;;;;;;5.45;1.10;;;;;;;;;;5064046;28;20477;-75
2022/12/30 11:01:45;;;;;;;5.97;1.20;;;;;;;;;;5064181;28;20051;-76
2022/12/30 11:04:40;;;;;;;4.03;1.10;;;;;;;;;;5067528;28;20027;-76
2022/12/30 11:07:10;;;;;;;4.72;1.08;;;;;;;;;;5071829;28;20032;-75
2022/12/30 11:09:35;;;;;;;7.05;1.30;;;;;;;;;;5069861;28;20028;-76
2022/12/30 11:15:04;;;;;;;1.88;0.95;;;;;;;;;;5066111;28;20089;-76
2022/12/30 11:17:44;;;;;;;4.90;0.98;;;;;;;;;;5070149;28;20058;-76
2022/12/30 11:20:12;;;;;;;5.80;1.27;;;;;;;;;;5058612;28;20069;-75
2022/12/30 11:22:45;;;;;;;5.13;1.05;;;;;;;;;;5054187;28;20533;-75
2022/12/30 11:25:29;;;;;;;3.55;1.10;;;;;;;;;;5056053;28;20024;-75
2022/12/30 11:27:58;;;;;;;3.63;0.90;;;;;;;;;;5065740;28;20029;-76
2022/12/30 11:30:29;;;;;;;3.90;1.00;;;;;;;;;;5057027;28;20028;-76
2022/12/30 11:32:57;;;;;;;4.72;0.80;;;;;;;;;;5064018;28;20056;-76
2022/12/30 11:35:37;;;;;;;5.78;1.20;;;;;;;;;;5064197;28;20043;-76
2022/12/30 11:38:14;;;;;;;4.72;1.00;;;;;;;;;;5068143;28;20340;-75
2022/12/30 11:40:39;;;;;;;7.03;1.00;;;;;;;;;;5056834;28;22156;-75
2022/12/30 11:43:18;;;;;;;4.35;0.90;;;;;;;;;;5053567;28;20048;-76
2022/12/30 11:46:01;;;;;;;4.30;1.13;;;;;;;;;;5055234;28;20035;-76
2022/12/30 11:48:29;;;;;;;3.15;0.77;;;;;;;;;;5061588;28;20502;-76
2022/12/30 11:50:55;;;;;;;4.97;1.10;;;;;;;;;;5057842;28;20028;-76
2022/12/30 11:53:27;;;;;;;4.13;0.90;;;;;;;;;;5060247;28;20024;-75
2022/12/30 11:55:53;;;;;;;3.35;1.20;;;;;;;;;;5063147;28;20708;-75
2022/12/30 11:58:20;;;;;;;2.50;0.90;;;;;;;;;;5061402;28;20848;-76
2022/12/30 12:00:55;;;;;;;6.63;1.48;;;;;;;;;;5055070;28;20024;-76
2022/12/30 12:03:21;;;;;;;3.45;0.90;;;;;;;;;;5052540;28;20044;-76
2022/12/30 12:05:46;;;;;;;2.83;0.80;;;;;;;;;;5056804;28;20028;-75
2022/12/30 12:08:21;;;;;;;5.50;1.00;;;;;;;;;;5054671;28;20024;-75
2022/12/30 12:10:54;;;;;;;2.72;0.95;;;;;;;;;;5057314;28;20157;-76
2022/12/30 12:13:33;;;;;;;4.82;0.95;;;;;;;;;;5056375;28;20056;-77
2022/12/30 12:15:59;;;;;;;4.93;1.00;;;;;;;;;;5062901;28;20040;-75
2022/12/30 12:18:25;;;;;;;4.03;0.90;;;;;;;;;;5066740;28;20424;-76
2022/12/30 12:20:56;;;;;;;3.88;0.98;;;;;;;;;;5056988;28;20029;-75
2022/12/30 12:23:46;;;;;;;3.92;1.25;;;;;;;;;;5058675;28;20037;-75
2022/12/30 12:26:28;;;;;;;5.60;1.10;;;;;;;;;;5059576;28;20033;-75
2022/12/30 12:28:56;;;;;;;4.60;1.40;;;;;;;;;;5062964;28;20390;-76
2022/12/30 12:31:52;;;;;;;3.38;0.90;;;;;;;;;;5054163;28;20498;-76
2022/12/30 12:34:34;;;;;;;5.32;1.00;;;;;;;;;;5058707;28;20043;-76
2022/12/30 12:37:18;;;;;;;2.50;0.80;;;;;;;;;;5058876;28;20025;-75
2022/12/30 12:39:52;;;;;;;;;;;;;;;;;;5054383;28;20133;-75
2022/12/30 12:42:25;;;;;;;2.08;0.73;;;;;;;;;;5058861;28;20384;-75
2022/12/30 12:45:26;;;;;;;3.03;0.70;;;;;;;;;;5052511;28;20060;-76
2022/12/30 12:48:10;;;;;;;4.25;0.88;;;;;;;;;;5058783;28;20574;-76
2022/12/30 12:50:50;;;;;;;1.83;0.70;;;;;;;;;;5060061;28;20024;-76
2022/12/30 12:53:34;;;;;;;4.82;0.90;;;;;;;;;;5060738;28;20032;-76
2022/12/30 12:56:23;;;;;;;4.78;0.85;;;;;;;;;;5065703;28;20107;-75
2022/12/30 12:59:16;;;;;;;4.47;0.90;;;;;;;;;;5053490;28;20040;-76
2022/12/30 13:01:55;;;;;;;6.05;1.00;;;;;;;;;;5061224;28;20524;-76
2022/12/30 13:05:15;;;;;;;3.92;0.85;;;;;;;;;;5058028;28;20025;-77
2022/12/30 13:07:52;;;;;;;2.33;0.80;;;;;;;;;;5019026;28;20160;-76
2022/12/30 13:10:32;;;;;;;4.65;1.00;;;;;;;;;;5021611;28;20517;-76
2022/12/30 13:13:15;;;;;;;1.80;0.70;;;;;;;;;;5052754;28;20123;-76
2022/12/30 13:15:44;;;;;;;;;;;;;;;;;;5052698;28;20051;-76
2022/12/30 13:18:22;;;;;;;4.43;0.98;;;;;;;;;;5055304;28;19920;-76
2022/12/30 13:20:53;;;;;;;3.70;1.02;;;;;;;;;;5054761;28;20094;-76
2022/12/30 13:23:24;;;;;;;2.83;0.70;;;;;;;;;;5062879;28;20032;-75
2022/12/30 13:25:54;;;;;;;1.83;0.70;;;;;;;;;;5061093;28;20031;-75
2022/12/30 13:28:23;;;;;;;2.58;0.80;;;;;;;;;;5059909;28;20097;-75
2022/12/30 13:31:25;;;;;;;2.42;1.00;;;;;;;;;;5057274;28;20025;-75
2022/12/30 13:34:10;;;;;;;3.67;0.70;;;;;;;;;;5062269;28;20032;-76
2022/12/30 13:36:59;;;;;;;2.45;0.65;;;;;;;;;;5058964;28;20366;-75
2022/12/30 13:40:06;;;;;;;5.32;1.17;;;;;;;;;;5058841;28;20481;-75
2022/12/30 13:43:04;;;;;;;1.42;0.80;;;;;;;;;;5065514;28;20033;-75
2022/12/30 13:45:33;;;;;;;4.32;0.70;;;;;;;;;;5058629;28;20408;-75
2022/12/30 13:48:01;;;;;;;5.32;0.90;;;;;;;;;;5058318;28;20043;-76
2022/12/30 13:50:29;;;;;;;3.42;1.48;;;;;;;;;;5061176;28;20028;-76
2022/12/30 13:52:56;;;;;;;2.85;0.77;;;;;;;;;;5053233;28;20024;-76
2022/12/30 13:55:34;;;;;;;4.55;1.00;;;;;;;;;;5053959;28;20394;-76
2022/12/30 13:58:28;;;;;;;2.70;0.93;;;;;;;;;;5056786;28;20347;-76
2022/12/30 14:01:28;;;;;;;2.40;1.00;;;;;;;;;;5056166;28;20036;-75
2022/12/30 14:04:28;;;;;;;4.10;1.20;;;;;;;;;;5052825;28;20076;-76
2022/12/30 14:06:54;;;;;;;2.83;0.90;;;;;;;;;;5060701;28;20143;-75
2022/12/30 14:09:21;;;;;;;2.00;0.80;;;;;;;;;;5064047;28;20029;-76
2022/12/30 14:12:05;;;;;;;4.45;1.00;;;;;;;;;;5059307;28;20055;-75
2022/12/30 14:14:35;;;;;;;2.03;0.88;;;;;;;;;;5057864;28;20416;-75
2022/12/30 14:17:08;;;;;;;3.28;0.70;;;;;;;;;;5049232;28;20128;-75
2022/12/30 14:19:54;;;;;;;3.35;1.10;;;;;;;;;;5053548;28;20075;-76
2022/12/30 14:22:41;;;;;;;2.85;0.80;;;;;;;;;;5057001;28;20365;-76
2022/12/30 14:25:25;;;;;;;2.47;1.02;;;;;;;;;;5046770;28;20039;-76
2022/12/30 14:28:20;;;;;;;2.15;0.80;;;;;;;;;;5058825;28;20025;-75
2022/12/30 14:30:54;;;;;;;3.05;0.90;;;;;;;;;;5058173;28;20021;-75
2022/12/30 14:33:39;;;;;;;2.58;0.90;;;;;;;;;;5056722;28;20028;-75
2022/12/30 14:36:17;;;;;;;3.65;1.17;;;;;;;;;;5061187;28;20090;-75
2022/12/30 14:38:56;;;;;;;3.03;0.90;;;;;;;;;;5055882;28;20031;-75
2022/12/30 14:41:35;;;;;;;2.63;0.80;;;;;;;;;;5056046;28;20182;-76
2022/12/30 14:44:17;;;;;;;4.72;1.13;;;;;;;;;;5052326;28;20035;-76
2022/12/30 14:46:45;;;;;;;2.53;1.23;;;;;;;;;;5051317;28;20036;-75
2022/12/30 14:49:12;;;;;;;3.40;1.30;;;;;;;;;;5054757;28;20052;-76
2022/12/30 14:51:42;;;;;;;2.63;1.23;;;;;;;;;;5060955;28;20040;-75
2022/12/30 14:54:14;;;;;;;2.63;1.10;;;;;;;;;;5065353;28;20540;-75
2022/12/30 14:56:47;;;;;;;3.03;1.05;;;;;;;;;;5062202;28;20036;-75
2022/12/30 14:59:12;;;;;;;2.17;0.98;;;;;;;;;;5063961;28;20123;-75
2022/12/30 15:01:38;;;;;;;3.85;0.93;;;;;;;;;;5059980;28;20100;-76
2022/12/30 15:04:14;;;;;;;2.05;0.90;;;;;;;;;;5063130;28;20133;-75
2022/12/30 15:06:42;;;;;;;2.88;0.82;;;;;;;;;;5059602;28;20392;-75
2022/12/30 15:09:14;;;;;;;1.42;0.80;;;;;;;;;;5061259;28;20026;-76
2022/12/30 15:11:39;;;;;;;1.77;1.00;;;;;;;;;;5060085;28;20028;-75
2022/12/30 15:14:13;;;;;;;1.73;0.90;;;;;;;;;;5060747;28;20136;-75
2022/12/30 15:16:38;;;;;;;1.38;0.95;;;;;;;;;;5064259;28;20033;-75
2022/12/30 15:19:22;;;;;;;2.67;1.15;;;;;;;;;;5067124;28;20078;-75
2022/12/30 15:21:47;;;;;;;1.77;0.90;;;;;;;;;;5069505;28;20463;-75
2022/12/30 15:24:15;;;;;;;3.17;1.10;;;;;;;;;;5060423;28;20107;-75
2022/12/30 15:26:44;;;;;;;2.17;1.08;;;;;;;;;;5068908;28;20467;-75
2022/12/30 15:29:18;;;;;;;1.23;0.77;;;;;;;;;;5057041;28;20048;-75
2022/12/30 15:31:49;;;;;;;1.48;0.90;;;;;;;;;;5061082;28;20040;-75
2022/12/30 15:34:18;;;;;;;1.75;1.00;;;;;;;;;;5062918;28;20028;-75
2022/12/30 15:36:44;;;;;;;1.75;0.90;;;;;;;;;;5062923;28;20626;-75
2022/12/30 15:39:13;;;;;;;2.50;0.85;;;;;;;;;;5063636;28;20115;-76
2022/12/30 15:41:40;;;;;;;2.80;1.30;;;;;;;;;;5059612;28;20372;-75
2022/12/30 15:44:11;;;;;;;9.20;5.63;;;;;;;;;;5065617;28;20107;-75
2022/12/30 15:46:55;;;;;;;5.15;2.90;;;;;;;;;;5067548;28;20046;-75
2022/12/30 15:49:24;;;;;;;2.50;1.60;;;;;;;;;;5063323;28;20396;-75
2022/12/30 15:51:53;;;;;;;3.67;2.13;;;;;;;;;;5058894;28;20039;-75
2022/12/30 15:54:30;;;;;;;3.95;2.10;;;;;;;;;;5060559;28;20021;-76
2022/12/30 15:56:57;;;;;;;4.90;2.47;;;;;;;;;;5054511;28;20028;-76
2022/12/30 15:59:33;;;;;;;4.10;2.40;;;;;;;;;;5063334;28;20143;-76
2022/12/30 16:02:05;;;;;;;4.88;3.00;;;;;;;;;;5058867;28;20468;-75
2022/12/30 16:04:30;;;;;;;4.05;2.13;;;;;;;;;;5057072;28;20059;-76
2022/12/30 16:06:57;;;;;;;2.90;1.85;;;;;;;;;;5057415;28;20016;-75
2022/12/30 16:09:35;;;;;;;13.55;6.55;;;;;;;;;;5059758;28;20032;-75